createdAt,value
2019-05-03T00:02:12.338Z,13.90
2019-05-03T00:04:42.330Z,13.90
2019-05-03T00:07:11.800Z,13.90
2019-05-03T00:09:42.506Z,13.90
2019-05-03T00:12:12.434Z,13.90
2019-05-03T00:14:42.494Z,13.90
2019-05-03T00:17:11.742Z,13.90
2019-05-03T00:19:42.087Z,13.90
2019-05-03T00:22:12.242Z,13.90
2019-05-03T00:24:42.454Z,13.90
2019-05-03T00:27:12.494Z,13.80
2019-05-03T00:29:41.773Z,13.90
2019-05-03T00:32:12.291Z,13.90
2019-05-03T00:34:46.578Z,13.90
2019-05-03T00:37:16.720Z,13.90
2019-05-03T00:40:02.764Z,13.90
2019-05-03T00:42:31.792Z,13.90
2019-05-03T00:45:02.287Z,13.90
2019-05-03T00:47:32.706Z,13.90
2019-05-03T00:50:02.817Z,13.90
2019-05-03T00:52:31.911Z,13.80
2019-05-03T00:55:02.236Z,13.90
2019-05-03T00:57:32.382Z,13.90
2019-05-03T01:00:02.091Z,13.80
2019-05-03T01:02:31.809Z,13.80
2019-05-03T01:05:02.663Z,13.90
2019-05-03T01:07:31.909Z,13.80
2019-05-03T01:10:02.566Z,13.90
2019-05-03T01:12:32.337Z,13.90
2019-05-03T01:15:02.777Z,13.90
2019-05-03T01:17:32.056Z,13.80
2019-05-03T01:20:02.542Z,13.80
2019-05-03T01:22:32.179Z,13.90
2019-05-03T01:25:02.855Z,13.90
2019-05-03T01:27:32.659Z,13.80
2019-05-03T01:30:02.890Z,13.80
2019-05-03T01:32:32.870Z,13.80
2019-05-03T01:35:03.131Z,13.80
2019-05-03T01:37:31.961Z,13.80
2019-05-03T01:40:02.362Z,13.80
2019-05-03T01:42:32.178Z,13.80
2019-05-03T01:45:01.757Z,13.80
2019-05-03T01:47:41.947Z,13.80
2019-05-03T01:50:15.012Z,13.70
2019-05-03T01:52:45.108Z,13.70
2019-05-03T01:55:15.848Z,13.70
2019-05-03T01:57:43.816Z,13.70
2019-05-03T02:00:14.527Z,13.70
2019-05-03T02:02:53.664Z,13.70
2019-05-03T02:05:39.739Z,13.70
2019-05-03T02:08:09.717Z,13.70
2019-05-03T02:10:38.153Z,13.70
2019-05-03T02:13:06.656Z,13.70
2019-05-03T02:15:35.074Z,13.60
2019-05-03T02:18:03.508Z,13.60
2019-05-03T02:20:32.377Z,13.60
2019-05-03T02:23:02.667Z,13.60
2019-05-03T02:25:32.358Z,13.60
2019-05-03T02:28:01.963Z,13.70
2019-05-03T02:30:33.132Z,13.60
2019-05-03T02:33:03.723Z,13.60
2019-05-03T02:35:33.175Z,13.60
2019-05-03T02:38:03.510Z,13.60
2019-05-03T02:40:33.837Z,13.70
2019-05-03T02:43:06.405Z,13.60
2019-05-03T02:45:36.970Z,13.60
2019-05-03T02:48:09.974Z,13.70
2019-05-03T02:50:38.481Z,13.70
2019-05-03T02:53:06.903Z,13.60
2019-05-03T02:55:36.433Z,13.60
2019-05-03T02:58:05.756Z,13.60
2019-05-03T03:00:59.835Z,13.60
2019-05-03T03:03:29.306Z,13.70
2019-05-03T03:05:59.380Z,13.70
2019-05-03T03:08:33.024Z,13.60
2019-05-03T03:11:06.297Z,13.60
2019-05-03T03:13:37.072Z,13.60
2019-05-03T03:16:08.697Z,13.60
2019-05-03T03:18:39.843Z,13.60
2019-05-03T03:21:12.029Z,13.60
2019-05-03T03:23:58.418Z,13.60
2019-05-03T03:26:37.710Z,13.60
2019-05-03T03:29:07.883Z,13.60
2019-05-03T03:31:39.457Z,13.60
2019-05-03T03:34:10.464Z,13.60
2019-05-03T03:36:59.284Z,13.60
2019-05-03T03:39:18.024Z,13.70
2019-05-03T03:41:47.635Z,13.70
2019-05-03T03:44:18.991Z,13.60
2019-05-03T03:46:49.285Z,13.60
2019-05-03T03:49:19.941Z,13.60
2019-05-03T03:51:53.150Z,13.60
2019-05-03T03:54:22.317Z,13.60
2019-05-03T03:57:03.247Z,13.60
2019-05-03T03:59:26.915Z,13.50
2019-05-03T04:01:55.897Z,13.50
2019-05-03T04:04:26.175Z,13.50
2019-05-03T04:06:58.594Z,13.50
2019-05-03T04:09:25.791Z,13.50
2019-05-03T04:11:56.855Z,13.50
2019-05-03T04:14:27.256Z,13.40
2019-05-03T04:17:15.108Z,13.40
2019-05-03T04:19:47.879Z,13.40
2019-05-03T04:22:16.625Z,13.40
2019-05-03T04:24:45.966Z,13.40
2019-05-03T04:27:22.231Z,13.40
2019-05-03T04:29:45.478Z,13.40
2019-05-03T04:32:15.757Z,13.40
2019-05-03T04:34:45.376Z,13.40
2019-05-03T04:37:16.135Z,13.30
2019-05-03T04:39:45.655Z,13.30
2019-05-03T04:42:16.543Z,13.30
2019-05-03T04:44:45.566Z,13.30
2019-05-03T04:47:15.771Z,13.30
2019-05-03T04:49:46.277Z,13.40
2019-05-03T04:52:16.541Z,13.30
2019-05-03T04:54:46.328Z,13.30
2019-05-03T04:57:16.035Z,13.40
2019-05-03T04:59:45.281Z,13.40
2019-05-03T05:02:15.988Z,13.30
2019-05-03T05:04:46.358Z,13.40
2019-05-03T05:07:15.500Z,13.40
2019-05-03T05:09:45.633Z,13.40
2019-05-03T05:12:16.273Z,13.30
2019-05-03T05:14:45.662Z,13.30
2019-05-03T05:17:16.549Z,13.30
2019-05-03T05:19:49.618Z,13.30
2019-05-03T05:22:19.689Z,13.30
2019-05-03T05:24:48.404Z,13.30
2019-05-03T05:27:21.153Z,13.30
2019-05-03T05:29:49.597Z,13.30
2019-05-03T05:32:18.013Z,13.30
2019-05-03T05:34:46.473Z,13.20
2019-05-03T05:37:14.899Z,13.20
2019-05-03T05:39:44.712Z,13.20
2019-05-03T05:42:14.929Z,13.20
2019-05-03T05:44:45.264Z,13.20
2019-05-03T05:47:27.461Z,13.10
2019-05-03T05:50:04.876Z,13.10
2019-05-03T05:52:34.650Z,13.10
2019-05-03T05:55:25.162Z,13.10
2019-05-03T05:58:10.001Z,13.10
2019-05-03T06:00:40.072Z,13.10
2019-05-03T06:03:08.502Z,13.00
2019-05-03T06:05:36.938Z,13.00
2019-05-03T06:08:09.997Z,12.90
2019-05-03T06:10:40.055Z,12.90
2019-05-03T06:13:23.434Z,12.90
2019-05-03T06:15:54.797Z,12.90
2019-05-03T06:18:41.536Z,12.80
2019-05-03T06:21:11.627Z,12.80
2019-05-03T06:23:41.761Z,12.70
2019-05-03T06:26:27.701Z,12.70
2019-05-03T06:28:56.701Z,12.70
2019-05-03T06:31:29.616Z,12.70
2019-05-03T06:33:58.064Z,12.60
2019-05-03T06:36:26.508Z,12.70
2019-05-03T06:38:54.944Z,12.70
2019-05-03T06:41:25.045Z,12.60
2019-05-03T06:43:55.224Z,12.60
2019-05-03T06:46:41.765Z,12.60
2019-05-03T06:49:10.198Z,12.60
2019-05-03T06:51:40.024Z,12.60
2019-05-03T06:54:08.791Z,12.70
2019-05-03T06:56:37.557Z,12.70
2019-05-03T06:59:07.958Z,12.70
2019-05-03T07:01:50.188Z,12.60
2019-05-03T07:04:24.519Z,12.60
2019-05-03T07:07:11.098Z,12.60
2019-05-03T07:09:41.179Z,12.60
2019-05-03T07:12:10.083Z,12.60
2019-05-03T07:14:38.532Z,12.60
2019-05-03T07:17:06.946Z,12.60
2019-05-03T07:19:35.626Z,12.60
2019-05-03T07:22:04.999Z,12.70
2019-05-03T07:24:38.769Z,12.60
2019-05-03T07:27:05.419Z,12.70
2019-05-03T07:29:36.371Z,12.70
2019-05-03T07:32:05.182Z,12.70
2019-05-03T07:34:35.215Z,12.70
2019-05-03T07:37:05.737Z,12.70
2019-05-03T07:39:34.968Z,12.70
2019-05-03T07:42:05.432Z,12.70
2019-05-03T07:44:34.738Z,12.70
2019-05-03T07:47:04.772Z,12.70
2019-05-03T07:49:35.509Z,12.60
2019-05-03T07:52:05.631Z,12.60
2019-05-03T07:54:34.839Z,12.60
2019-05-03T07:57:05.251Z,12.60
2019-05-03T07:59:35.572Z,12.60
2019-05-03T08:02:05.525Z,12.60
2019-05-03T08:04:35.805Z,12.60
2019-05-03T08:07:04.697Z,12.60
2019-05-03T08:09:34.980Z,12.70
2019-05-03T08:12:05.154Z,12.70
2019-05-03T08:14:35.488Z,12.80
2019-05-03T08:17:05.060Z,12.80
2019-05-03T08:19:35.517Z,12.80
2019-05-03T08:22:04.843Z,13.00
2019-05-03T08:24:34.545Z,13.00
2019-05-03T08:27:04.995Z,13.10
2019-05-03T08:29:35.158Z,13.10
2019-05-03T08:32:24.581Z,13.20
2019-05-03T08:35:12.436Z,13.20
2019-05-03T08:37:42.505Z,13.20
2019-05-03T08:40:11.554Z,13.30
2019-05-03T08:42:39.982Z,13.30
2019-05-03T08:45:08.521Z,13.30
2019-05-03T08:47:37.012Z,13.40
2019-05-03T08:50:06.979Z,13.50
2019-05-03T08:52:35.579Z,13.50
2019-05-03T08:55:05.293Z,13.60
2019-05-03T08:57:35.423Z,13.70
2019-05-03T09:00:07.412Z,13.80
2019-05-03T09:02:35.832Z,13.80
2019-05-03T09:05:06.515Z,13.80
2019-05-03T09:07:35.518Z,13.80
2019-05-03T09:10:12.274Z,14.00
2019-05-03T09:12:56.048Z,14.00
2019-05-03T09:15:25.195Z,14.20
2019-05-03T09:17:55.260Z,14.30
2019-05-03T09:20:25.084Z,14.30
2019-05-03T09:22:54.944Z,14.40
2019-05-03T09:25:24.759Z,14.40
2019-05-03T09:27:55.233Z,14.50
2019-05-03T09:30:25.130Z,14.50
2019-05-03T09:32:55.129Z,14.50
2019-05-03T09:35:30.582Z,14.50
2019-05-03T09:37:55.568Z,14.50
2019-05-03T09:40:24.668Z,14.50
2019-05-03T09:42:55.086Z,14.50
2019-05-03T09:45:24.615Z,14.50
2019-05-03T09:47:55.085Z,14.50
2019-05-03T09:50:24.685Z,14.50
2019-05-03T09:52:55.451Z,14.50
2019-05-03T09:55:25.400Z,14.50
2019-05-03T09:57:55.522Z,14.50
2019-05-03T10:00:24.619Z,14.50
2019-05-03T10:02:54.838Z,14.40
2019-05-03T10:05:25.569Z,14.50
2019-05-03T10:07:53.816Z,14.60
2019-05-03T10:10:24.684Z,14.70
2019-05-03T10:12:52.450Z,14.90
2019-05-03T10:15:33.107Z,14.90
2019-05-03T10:18:01.544Z,14.90
2019-05-03T10:20:30.050Z,14.80
2019-05-03T10:23:00.111Z,14.80
2019-05-03T10:25:28.596Z,14.80
2019-05-03T10:27:57.039Z,14.90
2019-05-03T10:30:26.801Z,15.00
2019-05-03T10:33:15.616Z,15.10
2019-05-03T10:35:45.109Z,15.20
2019-05-03T10:38:15.154Z,15.30
2019-05-03T10:40:45.263Z,15.30
2019-05-03T10:43:13.960Z,15.20
2019-05-03T10:45:42.368Z,15.20
2019-05-03T10:48:10.937Z,15.10
2019-05-03T10:50:40.283Z,15.00
2019-05-03T10:53:10.476Z,15.00
2019-05-03T10:55:39.132Z,14.90
2019-05-03T10:58:19.944Z,14.90
2019-05-03T11:00:53.228Z,14.90
2019-05-03T11:03:20.148Z,14.80
2019-05-03T11:05:48.604Z,14.70
2019-05-03T11:08:17.085Z,14.60
2019-05-03T11:10:45.578Z,14.60
2019-05-03T11:13:15.459Z,14.60
2019-05-03T11:15:44.413Z,14.60
2019-05-03T11:18:14.744Z,14.70
2019-05-03T11:20:45.136Z,14.90
2019-05-03T11:23:14.630Z,15.00
2019-05-03T11:25:45.021Z,15.20
2019-05-03T11:28:24.970Z,15.50
2019-05-03T11:31:01.380Z,15.70
2019-05-03T11:33:31.546Z,15.80
2019-05-03T11:36:01.623Z,15.90
2019-05-03T11:38:34.942Z,15.80
2019-05-03T11:41:04.889Z,15.70
2019-05-03T11:43:35.000Z,15.70
2019-05-03T11:46:03.655Z,15.70
2019-05-03T11:48:32.074Z,15.60
2019-05-03T11:51:00.524Z,15.60
2019-05-03T11:53:28.933Z,15.60
2019-05-03T11:55:57.413Z,15.50
2019-05-03T11:58:27.343Z,15.50
2019-05-03T12:01:13.071Z,15.40
2019-05-03T12:03:38.079Z,15.30
2019-05-03T12:06:06.630Z,15.30
2019-05-03T12:08:35.137Z,15.30
2019-05-03T12:11:05.591Z,15.30
2019-05-03T12:13:33.918Z,15.40
2019-05-03T12:16:11.706Z,15.40
2019-05-03T12:18:48.027Z,15.50
2019-05-03T12:21:05.245Z,15.70
2019-05-03T12:23:36.292Z,15.80
2019-05-03T12:26:09.733Z,16.10
2019-05-03T12:28:35.281Z,16.50
2019-05-03T12:31:04.930Z,16.70
2019-05-03T12:33:35.385Z,16.80
2019-05-03T12:36:05.333Z,16.80
2019-05-03T12:38:34.933Z,16.70
2019-05-03T12:41:05.520Z,16.70
2019-05-03T12:43:33.920Z,16.60
2019-05-03T12:46:02.406Z,16.60
2019-05-03T12:48:30.903Z,16.60
2019-05-03T12:50:59.841Z,16.50
2019-05-03T12:53:28.400Z,16.50
2019-05-03T12:55:56.883Z,16.40
2019-05-03T12:58:26.991Z,16.40
2019-05-03T13:00:59.984Z,16.40
2019-05-03T13:03:30.133Z,16.40
2019-05-03T13:05:58.549Z,16.40
2019-05-03T13:08:31.745Z,16.50
2019-05-03T13:11:00.252Z,16.60
2019-05-03T13:13:28.712Z,16.70
2019-05-03T13:15:57.177Z,16.80
2019-05-03T13:18:25.656Z,16.90
2019-05-03T13:20:55.860Z,17.00
2019-05-03T13:23:25.391Z,17.20
2019-05-03T13:25:54.021Z,17.40
2019-05-03T13:28:22.491Z,17.80
2019-05-03T13:30:50.924Z,18.10
2019-05-03T13:33:19.477Z,18.30
2019-05-03T13:35:47.933Z,18.30
2019-05-03T13:38:16.374Z,18.30
2019-05-03T13:40:45.485Z,18.10
2019-05-03T13:43:15.027Z,18.20
2019-05-03T13:45:45.011Z,18.10
2019-05-03T13:48:15.555Z,18.00
2019-05-03T13:50:44.600Z,17.90
2019-05-03T13:53:13.244Z,17.70
2019-05-03T13:55:41.746Z,17.50
2019-05-03T13:58:10.272Z,17.50
2019-05-03T14:00:38.727Z,17.30
2019-05-03T14:03:07.146Z,17.20
2019-05-03T14:05:35.663Z,17.10
2019-05-03T14:08:05.088Z,17.00
2019-05-03T14:10:35.828Z,17.00
2019-05-03T14:13:05.608Z,17.00
2019-05-03T14:15:34.821Z,17.30
2019-05-03T14:18:05.618Z,17.60
2019-05-03T14:20:54.948Z,17.90
2019-05-03T14:23:56.162Z,18.10
2019-05-03T14:26:24.745Z,18.40
2019-05-03T14:28:54.885Z,18.60
2019-05-03T14:31:25.243Z,18.60
2019-05-03T14:33:55.601Z,18.50
2019-05-03T14:36:25.065Z,18.40
2019-05-03T14:38:54.927Z,18.40
2019-05-03T14:41:25.453Z,18.30
2019-05-03T14:43:55.695Z,18.30
2019-05-03T14:46:32.671Z,18.20
2019-05-03T14:48:54.991Z,18.10
2019-05-03T14:51:25.225Z,18.10
2019-05-03T14:53:54.297Z,18.20
2019-05-03T14:56:28.722Z,18.10
2019-05-03T14:59:07.612Z,18.00
2019-05-03T15:01:37.754Z,17.90
2019-05-03T15:04:06.402Z,17.90
2019-05-03T15:06:35.446Z,17.80
2019-05-03T15:09:05.804Z,17.80
2019-05-03T15:11:34.573Z,17.80
2019-05-03T15:14:05.490Z,17.80
2019-05-03T15:16:34.382Z,17.70
2019-05-03T15:19:02.859Z,17.70
2019-05-03T15:21:31.301Z,17.70
2019-05-03T15:23:59.834Z,17.60
2019-05-03T15:26:28.280Z,17.50
2019-05-03T15:28:56.705Z,17.50
2019-05-03T15:31:25.240Z,17.40
2019-05-03T15:33:55.495Z,17.40
2019-05-03T15:36:23.996Z,17.40
2019-05-03T15:38:52.454Z,17.40
2019-05-03T15:41:20.887Z,17.40
2019-05-03T15:43:51.148Z,17.40
2019-05-03T15:46:33.312Z,17.40
2019-05-03T15:49:04.577Z,17.40
2019-05-03T15:51:33.264Z,17.40
2019-05-03T15:54:01.724Z,17.40
2019-05-03T15:56:30.142Z,17.30
2019-05-03T15:58:58.969Z,17.20
2019-05-03T16:01:27.471Z,17.20
2019-05-03T16:03:55.948Z,17.20
2019-05-03T16:06:24.845Z,17.10
2019-05-03T16:08:55.211Z,17.10
2019-05-03T16:11:25.300Z,17.10
2019-05-03T16:13:55.354Z,17.10
2019-05-03T16:16:24.822Z,17.00
2019-05-03T16:18:53.530Z,16.90
2019-05-03T16:21:22.020Z,16.90
2019-05-03T16:23:50.451Z,16.80
2019-05-03T16:26:18.912Z,16.80
2019-05-03T16:28:48.989Z,16.70
2019-05-03T16:31:19.164Z,16.60
2019-05-03T16:33:47.609Z,16.50
2019-05-03T16:36:16.153Z,16.50
2019-05-03T16:38:45.047Z,16.30
2019-05-03T16:41:17.513Z,16.20
2019-05-03T16:43:45.601Z,16.10
2019-05-03T16:46:14.553Z,16.10
2019-05-03T16:48:44.876Z,16.00
2019-05-03T16:51:15.133Z,16.00
2019-05-03T16:53:44.472Z,16.00
2019-05-03T16:56:16.544Z,15.90
2019-05-03T16:58:44.636Z,15.90
2019-05-03T17:01:15.955Z,15.90
2019-05-03T17:03:45.692Z,15.90
2019-05-03T17:06:34.880Z,15.90
2019-05-03T17:09:06.070Z,15.90
2019-05-03T17:11:34.764Z,15.90
2019-05-03T17:14:05.034Z,15.90
2019-05-03T17:16:34.461Z,16.00
2019-05-03T17:19:02.942Z,16.00
2019-05-03T17:21:31.466Z,16.10
2019-05-03T17:23:59.959Z,16.00
2019-05-03T17:26:28.496Z,16.00
2019-05-03T17:28:56.923Z,16.00
2019-05-03T17:31:25.473Z,16.00
2019-05-03T17:33:56.682Z,16.00
2019-05-03T17:36:25.081Z,16.00
2019-05-03T17:38:55.224Z,15.90
2019-05-03T17:41:25.675Z,15.90
2019-05-03T17:43:55.818Z,15.90
2019-05-03T17:46:25.512Z,15.90
2019-05-03T17:48:54.756Z,15.90
2019-05-03T17:51:42.588Z,15.80
2019-05-03T17:54:14.487Z,15.80
2019-05-03T17:56:56.509Z,15.80
2019-05-03T17:59:38.451Z,15.80
2019-05-03T18:02:23.681Z,15.70
2019-05-03T18:05:10.304Z,15.70
2019-05-03T18:07:45.272Z,15.70
2019-05-03T18:10:15.158Z,15.70
2019-05-03T18:12:45.262Z,15.70
2019-05-03T18:15:14.757Z,15.70
2019-05-03T18:17:44.482Z,15.70
2019-05-03T18:20:14.946Z,15.60
2019-05-03T18:22:43.300Z,15.50
2019-05-03T18:25:11.936Z,15.50
2019-05-03T18:27:40.446Z,15.40
2019-05-03T18:30:09.142Z,15.40
2019-05-03T18:32:37.586Z,15.40
2019-05-03T18:35:06.622Z,15.40
2019-05-03T18:37:35.149Z,15.40
2019-05-03T18:40:05.038Z,15.30
2019-05-03T18:42:35.337Z,15.30
2019-05-03T18:45:07.010Z,15.20
2019-05-03T18:47:35.481Z,15.20
2019-05-03T18:50:06.012Z,15.10
2019-05-03T18:52:34.561Z,15.10
2019-05-03T18:55:04.617Z,15.00
2019-05-03T18:57:33.188Z,15.00
2019-05-03T19:00:01.786Z,14.90
2019-05-03T19:02:30.268Z,14.90
2019-05-03T19:04:58.808Z,14.80
2019-05-03T19:07:40.641Z,14.80
2019-05-03T19:10:16.984Z,14.70
2019-05-03T19:12:49.871Z,14.70
2019-05-03T19:15:18.415Z,14.60
2019-05-03T19:17:48.482Z,14.60
2019-05-03T19:20:18.110Z,14.60
2019-05-03T19:22:46.603Z,14.50
2019-05-03T19:25:15.122Z,14.50
2019-05-03T19:27:45.125Z,14.50
2019-05-03T19:30:14.853Z,14.50
2019-05-03T19:32:45.045Z,14.40
2019-05-03T19:35:15.559Z,14.40
2019-05-03T19:37:46.363Z,14.40
2019-05-03T19:40:14.714Z,14.40
2019-05-03T19:42:44.761Z,14.40
2019-05-03T19:45:15.171Z,14.30
2019-05-03T19:47:44.731Z,14.40
2019-05-03T19:50:15.524Z,14.30
2019-05-03T19:52:51.269Z,14.30
2019-05-03T19:55:19.714Z,14.30
2019-05-03T19:57:48.152Z,14.30
2019-05-03T20:00:17.269Z,14.30
2019-05-03T20:02:47.327Z,14.30
2019-05-03T20:05:20.225Z,14.30
2019-05-03T20:08:08.175Z,14.20
2019-05-03T20:10:36.724Z,14.20
2019-05-03T20:13:05.155Z,14.20
2019-05-03T20:15:33.678Z,14.10
2019-05-03T20:18:02.174Z,14.20
2019-05-03T20:20:30.647Z,14.10
2019-05-03T20:22:59.284Z,14.10
2019-05-03T20:25:27.691Z,14.10
2019-05-03T20:27:56.175Z,14.10
2019-05-03T20:30:25.451Z,14.10
2019-05-03T20:32:55.536Z,14.10
2019-05-03T20:35:25.181Z,14.10
2019-05-03T20:37:55.387Z,14.10
2019-05-03T20:40:25.620Z,14.00
2019-05-03T20:42:58.881Z,14.10
2019-05-03T20:45:44.569Z,14.10
2019-05-03T20:48:14.725Z,14.10
2019-05-03T20:50:44.748Z,14.00
2019-05-03T20:53:13.313Z,14.00
2019-05-03T20:55:41.735Z,14.00
2019-05-03T20:58:11.456Z,14.00
2019-05-03T21:00:40.026Z,14.00
2019-05-03T21:03:08.481Z,14.00
2019-05-03T21:05:37.447Z,14.00
2019-05-03T21:08:06.130Z,14.00
2019-05-03T21:10:34.587Z,14.00
2019-05-03T21:13:05.284Z,14.00
2019-05-03T21:15:35.501Z,13.90
2019-05-03T21:18:05.738Z,13.90
2019-05-03T21:20:38.521Z,13.90
2019-05-03T21:23:14.767Z,13.90
2019-05-03T21:26:03.624Z,13.90
2019-05-03T21:28:16.154Z,13.90
2019-05-03T21:30:45.445Z,13.90
2019-05-03T21:33:15.657Z,13.90
2019-05-03T21:35:45.226Z,13.90
2019-05-03T21:38:13.873Z,13.90
2019-05-03T21:40:42.321Z,13.90
2019-05-03T21:43:10.780Z,13.90
2019-05-03T21:45:40.847Z,13.90
2019-05-03T21:48:14.642Z,13.80
2019-05-03T21:50:44.646Z,13.90
2019-05-03T21:53:14.771Z,13.80
2019-05-03T21:55:44.785Z,13.80
2019-05-03T21:58:16.030Z,13.80
2019-05-03T22:00:45.482Z,13.80
2019-05-03T22:03:14.592Z,13.80
2019-05-03T22:05:54.410Z,13.80
2019-05-03T22:08:13.489Z,13.80
2019-05-03T22:10:41.966Z,13.80
2019-05-03T22:13:10.672Z,13.80
2019-05-03T22:15:46.836Z,13.80
2019-05-03T22:18:16.898Z,13.80
2019-05-03T22:20:49.839Z,13.80
2019-05-03T22:23:31.465Z,13.70
2019-05-03T22:26:01.576Z,13.70
2019-05-03T22:28:30.016Z,13.70
2019-05-03T22:30:58.454Z,13.70
2019-05-03T22:33:26.865Z,13.70
2019-05-03T22:36:07.829Z,13.70
2019-05-03T22:38:25.519Z,13.70
2019-05-03T22:40:55.323Z,13.60
2019-05-03T22:43:25.349Z,13.60
2019-05-03T22:45:54.801Z,13.60
2019-05-03T22:48:25.097Z,13.60
2019-05-03T22:50:55.586Z,13.60
2019-05-03T22:53:25.357Z,13.60
2019-05-03T22:55:54.339Z,13.50
2019-05-03T22:58:24.723Z,13.50
2019-05-03T23:00:54.935Z,13.50
2019-05-03T23:03:24.873Z,13.50
2019-05-03T23:05:54.800Z,13.50
2019-05-03T23:08:25.154Z,13.50
2019-05-03T23:10:54.704Z,13.50
2019-05-03T23:13:24.897Z,13.50
2019-05-03T23:15:54.656Z,13.50
2019-05-03T23:18:24.622Z,13.50
2019-05-03T23:21:06.728Z,13.50
2019-05-03T23:23:54.827Z,13.50
2019-05-03T23:26:25.268Z,13.50
2019-05-03T23:28:55.121Z,13.50
2019-05-03T23:31:25.125Z,13.50
2019-05-03T23:33:54.482Z,13.50
2019-05-03T23:36:32.684Z,13.50
2019-05-03T23:38:54.650Z,13.50
2019-05-03T23:41:24.541Z,13.50
2019-05-03T23:43:53.217Z,13.50
2019-05-03T23:46:25.198Z,13.40
2019-05-03T23:48:53.416Z,13.40
2019-05-03T23:51:39.697Z,13.40
2019-05-03T23:54:08.137Z,13.40
2019-05-03T23:56:36.724Z,13.40
2019-05-03T23:59:05.617Z,13.40
